sensor_id;sensor_type;location;lat;lon;timestamp;P1;durP1;ratioP1;P2;durP2;ratioP2
6420;SDS011;3243;50.958;7.012;2022-08-04T00:10:17;7.07;;;3.40;;
6420;SDS011;3243;50.958;7.012;2022-08-04T00:12:46;5.07;;;3.05;;
6420;SDS011;3243;50.958;7.012;2022-08-04T00:15:16;6.72;;;3.42;;
6420;SDS011;3243;50.958;7.012;2022-08-04T00:17:44;5.55;;;3.40;;
6420;SDS011;3243;50.958;7.012;2022-08-04T00:20:16;5.55;;;3.60;;
6420;SDS011;3243;50.958;7.012;2022-08-04T00:22:45;5.00;;;3.35;;
6420;SDS011;3243;50.958;7.012;2022-08-04T00:25:13;5.05;;;3.50;;
6420;SDS011;3243;50.958;7.012;2022-08-04T00:27:40;5.55;;;3.70;;
6420;SDS011;3243;50.958;7.012;2022-08-04T00:30:07;5.72;;;3.10;;
6420;SDS011;3243;50.958;7.012;2022-08-04T00:32:34;6.25;;;3.72;;
6420;SDS011;3243;50.958;7.012;2022-08-04T00:35:01;6.22;;;3.20;;
6420;SDS011;3243;50.958;7.012;2022-08-04T00:37:28;4.68;;;3.22;;
6420;SDS011;3243;50.958;7.012;2022-08-04T00:39:56;7.00;;;3.38;;
6420;SDS011;3243;50.958;7.012;2022-08-04T00:56:35;4.90;;;2.63;;
6420;SDS011;3243;50.958;7.012;2022-08-04T00:59:12;5.20;;;2.90;;
6420;SDS011;3243;50.958;7.012;2022-08-04T01:04:23;5.60;;;2.95;;
6420;SDS011;3243;50.958;7.012;2022-08-04T01:10:08;5.50;;;3.00;;
6420;SDS011;3243;50.958;7.012;2022-08-04T01:12:54;4.82;;;2.97;;
6420;SDS011;3243;50.958;7.012;2022-08-04T01:15:45;6.28;;;3.20;;
6420;SDS011;3243;50.958;7.012;2022-08-04T01:18:35;6.43;;;2.97;;
6420;SDS011;3243;50.958;7.012;2022-08-04T01:21:20;4.95;;;3.38;;
6420;SDS011;3243;50.958;7.012;2022-08-04T01:24:28;5.60;;;3.40;;
6420;SDS011;3243;50.958;7.012;2022-08-04T01:30:08;6.15;;;3.13;;
6420;SDS011;3243;50.958;7.012;2022-08-04T01:32:36;5.55;;;2.60;;
6420;SDS011;3243;50.958;7.012;2022-08-04T01:35:45;4.40;;;2.72;;
6420;SDS011;3243;50.958;7.012;2022-08-04T01:40:46;5.45;;;2.97;;
6420;SDS011;3243;50.958;7.012;2022-08-04T01:43:18;4.47;;;2.70;;
6420;SDS011;3243;50.958;7.012;2022-08-04T01:45:50;3.78;;;2.70;;
6420;SDS011;3243;50.958;7.012;2022-08-04T01:48:22;4.82;;;3.00;;
6420;SDS011;3243;50.958;7.012;2022-08-04T01:50:51;4.32;;;2.45;;
6420;SDS011;3243;50.958;7.012;2022-08-04T01:53:19;4.65;;;2.70;;
6420;SDS011;3243;50.958;7.012;2022-08-04T01:55:47;5.07;;;3.00;;
6420;SDS011;3243;50.958;7.012;2022-08-04T01:58:21;3.63;;;3.15;;
6420;SDS011;3243;50.958;7.012;2022-08-04T02:00:56;5.63;;;3.30;;
6420;SDS011;3243;50.958;7.012;2022-08-04T02:03:34;5.55;;;2.78;;
6420;SDS011;3243;50.958;7.012;2022-08-04T02:09:11;4.75;;;2.80;;
6420;SDS011;3243;50.958;7.012;2022-08-04T02:12:24;4.85;;;3.03;;
6420;SDS011;3243;50.958;7.012;2022-08-04T02:15:16;5.50;;;2.88;;
6420;SDS011;3243;50.958;7.012;2022-08-04T02:20:22;3.72;;;2.83;;
6420;SDS011;3243;50.958;7.012;2022-08-04T02:23:00;5.97;;;3.10;;
6420;SDS011;3243;50.958;7.012;2022-08-04T02:25:35;3.22;;;2.50;;
6420;SDS011;3243;50.958;7.012;2022-08-04T02:33:45;4.18;;;2.72;;
6420;SDS011;3243;50.958;7.012;2022-08-04T02:36:30;4.93;;;3.10;;
6420;SDS011;3243;50.958;7.012;2022-08-04T02:39:03;5.03;;;2.80;;
6420;SDS011;3243;50.958;7.012;2022-08-04T02:44:17;4.90;;;2.85;;
6420;SDS011;3243;50.958;7.012;2022-08-04T02:46:49;5.10;;;2.80;;
6420;SDS011;3243;50.958;7.012;2022-08-04T02:49:18;4.28;;;2.90;;
6420;SDS011;3243;50.958;7.012;2022-08-04T02:51:51;5.00;;;2.88;;
6420;SDS011;3243;50.958;7.012;2022-08-04T02:54:22;4.28;;;2.75;;
6420;SDS011;3243;50.958;7.012;2022-08-04T02:56:59;4.57;;;3.00;;
6420;SDS011;3243;50.958;7.012;2022-08-04T02:59:26;6.45;;;3.38;;
6420;SDS011;3243;50.958;7.012;2022-08-04T03:01:55;5.97;;;3.45;;
6420;SDS011;3243;50.958;7.012;2022-08-04T03:55:44;5.85;;;3.25;;
6420;SDS011;3243;50.958;7.012;2022-08-04T04:00:46;4.82;;;3.10;;
6420;SDS011;3243;50.958;7.012;2022-08-04T04:06:25;6.63;;;3.10;;
6420;SDS011;3243;50.958;7.012;2022-08-04T04:14:32;3.58;;;3.28;;
6420;SDS011;3243;50.958;7.012;2022-08-04T04:17:27;4.80;;;3.10;;
6420;SDS011;3243;50.958;7.012;2022-08-04T04:22:28;4.20;;;3.15;;
6420;SDS011;3243;50.958;7.012;2022-08-04T04:28:04;4.35;;;2.85;;
6420;SDS011;3243;50.958;7.012;2022-08-04T04:33:48;6.20;;;3.13;;
6420;SDS011;3243;50.958;7.012;2022-08-04T04:36:29;4.30;;;3.15;;
6420;SDS011;3243;50.958;7.012;2022-08-04T04:52:29;4.95;;;3.03;;
6420;SDS011;3243;50.958;7.012;2022-08-04T04:55:21;8.10;;;3.40;;
6420;SDS011;3243;50.958;7.012;2022-08-04T04:57:51;6.50;;;3.30;;
6420;SDS011;3243;50.958;7.012;2022-08-04T05:00:22;3.75;;;3.10;;
6420;SDS011;3243;50.958;7.012;2022-08-04T05:11:27;7.13;;;3.65;;
6420;SDS011;3243;50.958;7.012;2022-08-04T05:14:03;4.05;;;3.08;;
6420;SDS011;3243;50.958;7.012;2022-08-04T05:16:53;5.57;;;3.25;;
6420;SDS011;3243;50.958;7.012;2022-08-04T05:19:33;6.30;;;3.38;;
6420;SDS011;3243;50.958;7.012;2022-08-04T05:22:09;5.47;;;3.38;;
6420;SDS011;3243;50.958;7.012;2022-08-04T05:24:40;5.18;;;3.60;;
6420;SDS011;3243;50.958;7.012;2022-08-04T05:27:14;5.97;;;3.40;;
6420;SDS011;3243;50.958;7.012;2022-08-04T05:29:50;6.32;;;3.30;;
6420;SDS011;3243;50.958;7.012;2022-08-04T05:32:19;6.30;;;3.42;;
6420;SDS011;3243;50.958;7.012;2022-08-04T05:34:51;5.40;;;3.10;;
6420;SDS011;3243;50.958;7.012;2022-08-04T05:38:01;7.85;;;3.45;;
6420;SDS011;3243;50.958;7.012;2022-08-04T05:40:30;4.57;;;3.20;;
6420;SDS011;3243;50.958;7.012;2022-08-04T05:42:57;3.92;;;3.25;;
6420;SDS011;3243;50.958;7.012;2022-08-04T05:45:24;6.05;;;3.05;;
6420;SDS011;3243;50.958;7.012;2022-08-04T05:48:05;6.63;;;3.20;;
6420;SDS011;3243;50.958;7.012;2022-08-04T05:50:34;4.15;;;2.85;;
6420;SDS011;3243;50.958;7.012;2022-08-04T05:53:01;4.85;;;3.42;;
6420;SDS011;3243;50.958;7.012;2022-08-04T05:55:28;5.18;;;3.08;;
6420;SDS011;3243;50.958;7.012;2022-08-04T05:58:16;5.95;;;3.08;;
6420;SDS011;3243;50.958;7.012;2022-08-04T06:00:44;5.38;;;2.83;;
6420;SDS011;3243;50.958;7.012;2022-08-04T06:03:18;4.18;;;2.95;;
6420;SDS011;3243;50.958;7.012;2022-08-04T06:05:46;3.95;;;3.10;;
6420;SDS011;3243;50.958;7.012;2022-08-04T06:08:14;4.07;;;2.50;;
6420;SDS011;3243;50.958;7.012;2022-08-04T06:10:41;5.47;;;2.53;;
6420;SDS011;3243;50.958;7.012;2022-08-04T06:13:11;4.20;;;3.03;;
6420;SDS011;3243;50.958;7.012;2022-08-04T06:16:02;3.53;;;2.40;;
6420;SDS011;3243;50.958;7.012;2022-08-04T06:18:31;8.18;;;2.60;;
6420;SDS011;3243;50.958;7.012;2022-08-04T06:21:20;7.68;;;3.65;;
6420;SDS011;3243;50.958;7.012;2022-08-04T06:23:49;14.43;;;9.50;;
6420;SDS011;3243;50.958;7.012;2022-08-04T06:26:29;4.35;;;3.20;;
6420;SDS011;3243;50.958;7.012;2022-08-04T06:28:59;5.07;;;3.00;;
6420;SDS011;3243;50.958;7.012;2022-08-04T06:31:27;5.53;;;2.97;;
6420;SDS011;3243;50.958;7.012;2022-08-04T06:34:31;4.90;;;2.78;;
6420;SDS011;3243;50.958;7.012;2022-08-04T06:37:00;5.13;;;3.03;;
6420;SDS011;3243;50.958;7.012;2022-08-04T06:39:28;5.18;;;2.90;;
6420;SDS011;3243;50.958;7.012;2022-08-04T06:41:56;3.78;;;2.97;;
6420;SDS011;3243;50.958;7.012;2022-08-04T06:44:45;5.47;;;2.90;;
6420;SDS011;3243;50.958;7.012;2022-08-04T06:47:14;3.67;;;2.50;;
6420;SDS011;3243;50.958;7.012;2022-08-04T06:49:45;4.43;;;2.70;;
6420;SDS011;3243;50.958;7.012;2022-08-04T06:52:34;4.65;;;3.00;;
6420;SDS011;3243;50.958;7.012;2022-08-04T06:55:02;4.85;;;3.25;;
6420;SDS011;3243;50.958;7.012;2022-08-04T06:57:31;7.38;;;3.03;;
6420;SDS011;3243;50.958;7.012;2022-08-04T07:00:01;6.15;;;2.80;;
6420;SDS011;3243;50.958;7.012;2022-08-04T07:02:41;7.40;;;2.85;;
6420;SDS011;3243;50.958;7.012;2022-08-04T07:05:10;3.92;;;2.58;;
6420;SDS011;3243;50.958;7.012;2022-08-04T07:07:38;3.50;;;2.67;;
6420;SDS011;3243;50.958;7.012;2022-08-04T07:10:24;3.22;;;2.90;;
6420;SDS011;3243;50.958;7.012;2022-08-04T07:12:54;4.15;;;2.97;;
6420;SDS011;3243;50.958;7.012;2022-08-04T07:15:25;5.10;;;3.10;;
6420;SDS011;3243;50.958;7.012;2022-08-04T07:17:53;3.20;;;2.70;;
6420;SDS011;3243;50.958;7.012;2022-08-04T07:20:24;3.75;;;2.70;;
6420;SDS011;3243;50.958;7.012;2022-08-04T07:23:04;5.63;;;3.10;;
6420;SDS011;3243;50.958;7.012;2022-08-04T07:25:32;3.95;;;2.95;;
6420;SDS011;3243;50.958;7.012;2022-08-04T07:28:21;5.50;;;3.20;;
6420;SDS011;3243;50.958;7.012;2022-08-04T07:30:52;4.70;;;3.35;;
6420;SDS011;3243;50.958;7.012;2022-08-04T07:33:21;3.40;;;3.00;;
6420;SDS011;3243;50.958;7.012;2022-08-04T07:35:49;4.78;;;3.10;;
6420;SDS011;3243;50.958;7.012;2022-08-04T07:38:40;3.75;;;3.08;;
6420;SDS011;3243;50.958;7.012;2022-08-04T07:41:19;4.05;;;3.15;;
6420;SDS011;3243;50.958;7.012;2022-08-04T07:44:05;5.05;;;3.55;;
6420;SDS011;3243;50.958;7.012;2022-08-04T07:46:33;4.00;;;3.60;;
6420;SDS011;3243;50.958;7.012;2022-08-04T07:49:00;8.18;;;3.58;;
6420;SDS011;3243;50.958;7.012;2022-08-04T07:51:28;5.05;;;3.17;;
6420;SDS011;3243;50.958;7.012;2022-08-04T07:53:57;4.78;;;3.25;;
6420;SDS011;3243;50.958;7.012;2022-08-04T07:56:25;3.95;;;3.30;;
6420;SDS011;3243;50.958;7.012;2022-08-04T07:58:53;5.00;;;3.50;;
6420;SDS011;3243;50.958;7.012;2022-08-04T08:01:20;5.20;;;3.53;;
6420;SDS011;3243;50.958;7.012;2022-08-04T08:03:49;6.88;;;3.60;;
6420;SDS011;3243;50.958;7.012;2022-08-04T08:06:17;5.00;;;3.58;;
6420;SDS011;3243;50.958;7.012;2022-08-04T08:08:58;4.25;;;3.67;;
6420;SDS011;3243;50.958;7.012;2022-08-04T08:11:39;5.47;;;4.07;;
6420;SDS011;3243;50.958;7.012;2022-08-04T08:14:27;5.93;;;3.83;;
6420;SDS011;3243;50.958;7.012;2022-08-04T08:16:55;7.65;;;5.20;;
6420;SDS011;3243;50.958;7.012;2022-08-04T08:19:23;7.32;;;4.10;;
6420;SDS011;3243;50.958;7.012;2022-08-04T08:21:50;4.70;;;4.13;;
6420;SDS011;3243;50.958;7.012;2022-08-04T08:24:25;8.57;;;4.15;;
6420;SDS011;3243;50.958;7.012;2022-08-04T08:26:53;5.70;;;4.10;;
6420;SDS011;3243;50.958;7.012;2022-08-04T08:29:22;5.10;;;3.80;;
6420;SDS011;3243;50.958;7.012;2022-08-04T08:31:49;6.68;;;4.05;;
6420;SDS011;3243;50.958;7.012;2022-08-04T08:34:24;5.25;;;4.07;;
6420;SDS011;3243;50.958;7.012;2022-08-04T08:37:11;5.07;;;3.85;;
6420;SDS011;3243;50.958;7.012;2022-08-04T08:40:09;6.00;;;4.00;;
6420;SDS011;3243;50.958;7.012;2022-08-04T09:04:57;4.10;;;3.70;;
6420;SDS011;3243;50.958;7.012;2022-08-04T09:07:50;6.88;;;3.17;;
6420;SDS011;3243;50.958;7.012;2022-08-04T09:10:44;9.70;;;3.63;;
6420;SDS011;3243;50.958;7.012;2022-08-04T09:19:01;3.75;;;3.35;;
6420;SDS011;3243;50.958;7.012;2022-08-04T09:27:20;10.05;;;3.20;;
6420;SDS011;3243;50.958;7.012;2022-08-04T09:40:51;4.05;;;2.58;;
6420;SDS011;3243;50.958;7.012;2022-08-04T09:49:52;5.00;;;2.67;;
6420;SDS011;3243;50.958;7.012;2022-08-04T09:55:01;7.20;;;2.80;;
6420;SDS011;3243;50.958;7.012;2022-08-04T10:00:09;4.70;;;2.10;;
6420;SDS011;3243;50.958;7.012;2022-08-04T10:02:43;3.63;;;2.33;;
6420;SDS011;3243;50.958;7.012;2022-08-04T10:05:25;8.80;;;2.25;;
6420;SDS011;3243;50.958;7.012;2022-08-04T10:08:14;6.32;;;2.40;;
6420;SDS011;3243;50.958;7.012;2022-08-04T10:19:23;8.90;;;1.75;;
6420;SDS011;3243;50.958;7.012;2022-08-04T10:27:32;4.47;;;2.03;;
6420;SDS011;3243;50.958;7.012;2022-08-04T10:30:07;3.10;;;2.30;;
6420;SDS011;3243;50.958;7.012;2022-08-04T10:35:36;3.50;;;2.13;;
6420;SDS011;3243;50.958;7.012;2022-08-04T10:46:20;6.28;;;2.15;;
6420;SDS011;3243;50.958;7.012;2022-08-04T10:48:58;4.45;;;2.03;;
6420;SDS011;3243;50.958;7.012;2022-08-04T10:54:38;3.65;;;2.10;;
6420;SDS011;3243;50.958;7.012;2022-08-04T10:57:12;5.63;;;1.98;;
6420;SDS011;3243;50.958;7.012;2022-08-04T11:04:56;5.63;;;2.20;;
6420;SDS011;3243;50.958;7.012;2022-08-04T11:07:27;8.38;;;2.10;;
6420;SDS011;3243;50.958;7.012;2022-08-04T11:09:58;4.18;;;1.60;;
6420;SDS011;3243;50.958;7.012;2022-08-04T11:12:25;2.15;;;1.88;;
6420;SDS011;3243;50.958;7.012;2022-08-04T11:14:56;3.80;;;2.00;;
6420;SDS011;3243;50.958;7.012;2022-08-04T11:17:28;5.82;;;2.00;;
6420;SDS011;3243;50.958;7.012;2022-08-04T11:26:14;5.72;;;2.10;;
6420;SDS011;3243;50.958;7.012;2022-08-04T11:28:27;5.97;;;2.20;;
6420;SDS011;3243;50.958;7.012;2022-08-04T11:38:42;3.42;;;2.05;;
6420;SDS011;3243;50.958;7.012;2022-08-04T11:41:18;6.43;;;2.05;;
6420;SDS011;3243;50.958;7.012;2022-08-04T11:43:55;7.75;;;2.40;;
6420;SDS011;3243;50.958;7.012;2022-08-04T11:46:35;6.25;;;2.10;;
6420;SDS011;3243;50.958;7.012;2022-08-04T11:52:21;9.15;;;2.10;;
6420;SDS011;3243;50.958;7.012;2022-08-04T11:54:50;4.47;;;2.25;;
6420;SDS011;3243;50.958;7.012;2022-08-04T11:57:20;5.38;;;2.47;;
6420;SDS011;3243;50.958;7.012;2022-08-04T12:00:02;6.80;;;2.47;;
6420;SDS011;3243;50.958;7.012;2022-08-04T12:02:49;7.20;;;2.28;;
6420;SDS011;3243;50.958;7.012;2022-08-04T12:05:20;5.22;;;2.03;;
6420;SDS011;3243;50.958;7.012;2022-08-04T12:08:16;4.97;;;2.08;;
6420;SDS011;3243;50.958;7.012;2022-08-04T12:16:59;3.78;;;2.17;;
6420;SDS011;3243;50.958;7.012;2022-08-04T12:19:43;7.90;;;2.22;;
6420;SDS011;3243;50.958;7.012;2022-08-04T12:22:28;10.35;;;2.30;;
6420;SDS011;3243;50.958;7.012;2022-08-04T12:25:07;8.98;;;1.98;;
6420;SDS011;3243;50.958;7.012;2022-08-04T12:27:36;6.10;;;2.20;;
6420;SDS011;3243;50.958;7.012;2022-08-04T12:30:11;5.32;;;1.98;;
6420;SDS011;3243;50.958;7.012;2022-08-04T12:33:09;6.82;;;2.10;;
6420;SDS011;3243;50.958;7.012;2022-08-04T12:35:58;5.50;;;2.13;;
6420;SDS011;3243;50.958;7.012;2022-08-04T12:38:37;10.57;;;2.40;;
6420;SDS011;3243;50.958;7.012;2022-08-04T12:41:14;10.45;;;2.67;;
6420;SDS011;3243;50.958;7.012;2022-08-04T12:43:42;7.72;;;2.20;;
6420;SDS011;3243;50.958;7.012;2022-08-04T12:46:11;5.57;;;2.30;;
6420;SDS011;3243;50.958;7.012;2022-08-04T12:48:39;7.63;;;2.35;;
6420;SDS011;3243;50.958;7.012;2022-08-04T12:51:11;8.70;;;2.20;;
6420;SDS011;3243;50.958;7.012;2022-08-04T12:53:59;4.53;;;2.53;;
6420;SDS011;3243;50.958;7.012;2022-08-04T12:56:26;12.32;;;2.90;;
6420;SDS011;3243;50.958;7.012;2022-08-04T12:58:59;5.32;;;2.70;;
6420;SDS011;3243;50.958;7.012;2022-08-04T13:01:29;5.85;;;2.00;;
6420;SDS011;3243;50.958;7.012;2022-08-04T13:04:22;4.20;;;2.40;;
6420;SDS011;3243;50.958;7.012;2022-08-04T13:07:02;5.20;;;2.20;;
6420;SDS011;3243;50.958;7.012;2022-08-04T13:09:32;5.22;;;2.25;;
6420;SDS011;3243;50.958;7.012;2022-08-04T13:12:04;6.18;;;2.05;;
6420;SDS011;3243;50.958;7.012;2022-08-04T13:14:33;8.40;;;2.58;;
6420;SDS011;3243;50.958;7.012;2022-08-04T13:17:02;7.07;;;2.75;;
6420;SDS011;3243;50.958;7.012;2022-08-04T13:19:33;5.30;;;2.10;;
6420;SDS011;3243;50.958;7.012;2022-08-04T13:22:07;6.88;;;2.55;;
6420;SDS011;3243;50.958;7.012;2022-08-04T13:24:34;6.85;;;2.08;;
6420;SDS011;3243;50.958;7.012;2022-08-04T13:27:24;4.72;;;2.10;;
6420;SDS011;3243;50.958;7.012;2022-08-04T13:29:54;7.07;;;2.20;;
6420;SDS011;3243;50.958;7.012;2022-08-04T13:32:42;3.10;;;1.90;;
6420;SDS011;3243;50.958;7.012;2022-08-04T13:35:09;8.90;;;2.20;;
6420;SDS011;3243;50.958;7.012;2022-08-04T13:37:37;4.60;;;2.08;;
6420;SDS011;3243;50.958;7.012;2022-08-04T13:40:08;3.30;;;2.20;;
6420;SDS011;3243;50.958;7.012;2022-08-04T13:42:38;3.72;;;2.20;;
6420;SDS011;3243;50.958;7.012;2022-08-04T13:45:07;5.82;;;2.22;;
6420;SDS011;3243;50.958;7.012;2022-08-04T13:47:36;4.85;;;1.90;;
6420;SDS011;3243;50.958;7.012;2022-08-04T13:50:05;9.88;;;2.30;;
6420;SDS011;3243;50.958;7.012;2022-08-04T13:52:37;5.78;;;2.42;;
6420;SDS011;3243;50.958;7.012;2022-08-04T13:55:05;3.00;;;1.98;;
6420;SDS011;3243;50.958;7.012;2022-08-04T13:57:34;7.22;;;2.30;;
6420;SDS011;3243;50.958;7.012;2022-08-04T14:00:08;5.72;;;2.00;;
6420;SDS011;3243;50.958;7.012;2022-08-04T14:02:38;8.18;;;2.35;;
6420;SDS011;3243;50.958;7.012;2022-08-04T14:05:07;2.30;;;2.08;;
6420;SDS011;3243;50.958;7.012;2022-08-04T14:07:45;7.25;;;2.58;;
6420;SDS011;3243;50.958;7.012;2022-08-04T14:10:12;5.93;;;2.10;;
6420;SDS011;3243;50.958;7.012;2022-08-04T14:12:46;7.63;;;2.40;;
6420;SDS011;3243;50.958;7.012;2022-08-04T14:15:33;5.45;;;2.60;;
6420;SDS011;3243;50.958;7.012;2022-08-04T14:18:23;3.67;;;2.17;;
6420;SDS011;3243;50.958;7.012;2022-08-04T14:21:00;4.50;;;2.20;;
6420;SDS011;3243;50.958;7.012;2022-08-04T14:23:28;5.85;;;2.40;;
6420;SDS011;3243;50.958;7.012;2022-08-04T14:25:58;7.13;;;2.20;;
6420;SDS011;3243;50.958;7.012;2022-08-04T14:28:27;5.20;;;2.20;;
6420;SDS011;3243;50.958;7.012;2022-08-04T14:31:18;8.98;;;2.70;;
6420;SDS011;3243;50.958;7.012;2022-08-04T14:33:47;5.03;;;2.88;;
6420;SDS011;3243;50.958;7.012;2022-08-04T14:36:39;4.35;;;2.15;;
6420;SDS011;3243;50.958;7.012;2022-08-04T14:39:37;5.45;;;2.65;;
6420;SDS011;3243;50.958;7.012;2022-08-04T14:42:05;6.70;;;2.30;;
6420;SDS011;3243;50.958;7.012;2022-08-04T14:44:50;4.97;;;2.60;;
6420;SDS011;3243;50.958;7.012;2022-08-04T14:47:27;6.75;;;2.20;;
6420;SDS011;3243;50.958;7.012;2022-08-04T14:50:18;7.20;;;2.38;;
6420;SDS011;3243;50.958;7.012;2022-08-04T14:52:46;2.90;;;2.30;;
6420;SDS011;3243;50.958;7.012;2022-08-04T14:55:17;7.25;;;2.92;;
6420;SDS011;3243;50.958;7.012;2022-08-04T14:57:46;3.47;;;2.50;;
6420;SDS011;3243;50.958;7.012;2022-08-04T15:00:35;4.00;;;2.42;;
6420;SDS011;3243;50.958;7.012;2022-08-04T15:03:05;4.65;;;2.25;;
6420;SDS011;3243;50.958;7.012;2022-08-04T15:05:36;5.40;;;2.50;;
6420;SDS011;3243;50.958;7.012;2022-08-04T15:08:25;6.45;;;2.42;;
6420;SDS011;3243;50.958;7.012;2022-08-04T15:10:57;3.63;;;2.47;;
6420;SDS011;3243;50.958;7.012;2022-08-04T15:13:31;5.45;;;2.22;;
6420;SDS011;3243;50.958;7.012;2022-08-04T15:16:01;5.97;;;2.30;;
6420;SDS011;3243;50.958;7.012;2022-08-04T15:18:34;4.90;;;2.20;;
6420;SDS011;3243;50.958;7.012;2022-08-04T15:21:02;4.78;;;2.42;;
6420;SDS011;3243;50.958;7.012;2022-08-04T15:23:30;8.02;;;2.63;;
6420;SDS011;3243;50.958;7.012;2022-08-04T15:26:05;5.55;;;2.13;;
6420;SDS011;3243;50.958;7.012;2022-08-04T15:28:35;5.95;;;2.20;;
6420;SDS011;3243;50.958;7.012;2022-08-04T15:31:05;4.57;;;2.10;;
6420;SDS011;3243;50.958;7.012;2022-08-04T15:33:54;3.30;;;2.05;;
6420;SDS011;3243;50.958;7.012;2022-08-04T15:36:41;4.15;;;2.28;;
6420;SDS011;3243;50.958;7.012;2022-08-04T15:39:33;3.85;;;2.40;;
6420;SDS011;3243;50.958;7.012;2022-08-04T15:47:37;2.20;;;1.77;;
6420;SDS011;3243;50.958;7.012;2022-08-04T15:50:11;4.10;;;2.10;;
6420;SDS011;3243;50.958;7.012;2022-08-04T15:55:41;3.42;;;2.25;;
6420;SDS011;3243;50.958;7.012;2022-08-04T15:58:12;4.28;;;2.42;;
6420;SDS011;3243;50.958;7.012;2022-08-04T16:16:27;7.35;;;2.78;;
6420;SDS011;3243;50.958;7.012;2022-08-04T16:19:06;6.45;;;2.78;;
6420;SDS011;3243;50.958;7.012;2022-08-04T16:26:47;7.07;;;3.03;;
6420;SDS011;3243;50.958;7.012;2022-08-04T16:32:19;6.93;;;3.50;;
6420;SDS011;3243;50.958;7.012;2022-08-04T16:34:52;8.45;;;2.95;;
6420;SDS011;3243;50.958;7.012;2022-08-04T16:37:22;4.65;;;2.58;;
6420;SDS011;3243;50.958;7.012;2022-08-04T16:48:29;4.90;;;2.58;;
6420;SDS011;3243;50.958;7.012;2022-08-04T16:50:59;6.68;;;3.47;;
6420;SDS011;3243;50.958;7.012;2022-08-04T16:53:33;5.60;;;2.60;;
6420;SDS011;3243;50.958;7.012;2022-08-04T16:56:26;5.20;;;2.60;;
6420;SDS011;3243;50.958;7.012;2022-08-04T16:59:06;7.60;;;3.97;;
6420;SDS011;3243;50.958;7.012;2022-08-04T17:01:35;6.25;;;2.55;;
6420;SDS011;3243;50.958;7.012;2022-08-04T17:04:03;4.15;;;2.63;;
6420;SDS011;3243;50.958;7.012;2022-08-04T17:06:35;5.45;;;3.35;;
6420;SDS011;3243;50.958;7.012;2022-08-04T17:09:04;4.82;;;3.03;;
6420;SDS011;3243;50.958;7.012;2022-08-04T17:11:32;3.83;;;2.53;;
6420;SDS011;3243;50.958;7.012;2022-08-04T17:13:59;6.07;;;2.67;;
6420;SDS011;3243;50.958;7.012;2022-08-04T17:16:32;5.30;;;2.63;;
6420;SDS011;3243;50.958;7.012;2022-08-04T17:19:00;7.47;;;4.13;;
6420;SDS011;3243;50.958;7.012;2022-08-04T17:21:28;9.35;;;3.63;;
6420;SDS011;3243;50.958;7.012;2022-08-04T17:23:57;8.52;;;3.53;;
6420;SDS011;3243;50.958;7.012;2022-08-04T17:26:43;5.93;;;2.90;;
6420;SDS011;3243;50.958;7.012;2022-08-04T17:29:20;7.85;;;3.35;;
6420;SDS011;3243;50.958;7.012;2022-08-04T17:32:11;4.15;;;2.63;;
6420;SDS011;3243;50.958;7.012;2022-08-04T17:34:39;4.50;;;3.08;;
6420;SDS011;3243;50.958;7.012;2022-08-04T17:37:09;8.50;;;4.13;;
6420;SDS011;3243;50.958;7.012;2022-08-04T17:40:04;7.78;;;3.70;;
6420;SDS011;3243;50.958;7.012;2022-08-04T17:42:36;6.47;;;3.58;;
6420;SDS011;3243;50.958;7.012;2022-08-04T17:45:05;8.27;;;3.90;;
6420;SDS011;3243;50.958;7.012;2022-08-04T17:47:54;7.68;;;3.80;;
6420;SDS011;3243;50.958;7.012;2022-08-04T17:50:25;10.65;;;4.68;;
6420;SDS011;3243;50.958;7.012;2022-08-04T17:52:59;11.15;;;4.53;;
6420;SDS011;3243;50.958;7.012;2022-08-04T17:55:41;8.45;;;4.68;;
6420;SDS011;3243;50.958;7.012;2022-08-04T17:58:11;6.55;;;3.90;;
6420;SDS011;3243;50.958;7.012;2022-08-04T18:00:48;7.10;;;3.30;;
6420;SDS011;3243;50.958;7.012;2022-08-04T18:03:26;6.90;;;3.63;;
6420;SDS011;3243;50.958;7.012;2022-08-04T18:05:55;9.32;;;3.80;;
6420;SDS011;3243;50.958;7.012;2022-08-04T18:08:29;8.23;;;4.22;;
6420;SDS011;3243;50.958;7.012;2022-08-04T18:11:06;7.90;;;3.85;;
6420;SDS011;3243;50.958;7.012;2022-08-04T18:13:51;10.02;;;5.00;;
6420;SDS011;3243;50.958;7.012;2022-08-04T18:16:22;8.05;;;3.22;;
6420;SDS011;3243;50.958;7.012;2022-08-04T18:19:08;5.30;;;3.20;;
6420;SDS011;3243;50.958;7.012;2022-08-04T18:21:35;7.45;;;4.10;;
6420;SDS011;3243;50.958;7.012;2022-08-04T18:24:23;6.10;;;4.40;;
6420;SDS011;3243;50.958;7.012;2022-08-04T18:27:10;7.15;;;3.13;;
6420;SDS011;3243;50.958;7.012;2022-08-04T18:29:39;7.25;;;3.22;;
6420;SDS011;3243;50.958;7.012;2022-08-04T18:32:27;5.82;;;3.50;;
6420;SDS011;3243;50.958;7.012;2022-08-04T18:34:59;9.15;;;3.67;;
6420;SDS011;3243;50.958;7.012;2022-08-04T18:37:32;7.25;;;3.65;;
6420;SDS011;3243;50.958;7.012;2022-08-04T18:40:19;4.95;;;3.22;;
6420;SDS011;3243;50.958;7.012;2022-08-04T18:43:00;6.47;;;3.08;;
6420;SDS011;3243;50.958;7.012;2022-08-04T18:45:29;4.75;;;3.13;;
6420;SDS011;3243;50.958;7.012;2022-08-04T18:48:16;8.68;;;3.10;;
6420;SDS011;3243;50.958;7.012;2022-08-04T18:50:44;8.55;;;3.17;;
6420;SDS011;3243;50.958;7.012;2022-08-04T18:53:30;9.00;;;3.40;;
6420;SDS011;3243;50.958;7.012;2022-08-04T18:56:01;6.72;;;3.42;;
6420;SDS011;3243;50.958;7.012;2022-08-04T18:58:31;8.90;;;3.30;;
6420;SDS011;3243;50.958;7.012;2022-08-04T19:00:58;6.57;;;3.10;;
6420;SDS011;3243;50.958;7.012;2022-08-04T19:03:26;4.82;;;3.42;;
6420;SDS011;3243;50.958;7.012;2022-08-04T19:05:58;9.02;;;3.45;;
6420;SDS011;3243;50.958;7.012;2022-08-04T19:08:26;7.10;;;3.08;;
6420;SDS011;3243;50.958;7.012;2022-08-04T19:11:01;7.82;;;2.90;;
6420;SDS011;3243;50.958;7.012;2022-08-04T19:13:49;6.20;;;3.20;;
6420;SDS011;3243;50.958;7.012;2022-08-04T19:16:23;5.60;;;3.15;;
6420;SDS011;3243;50.958;7.012;2022-08-04T19:18:55;8.15;;;3.20;;
6420;SDS011;3243;50.958;7.012;2022-08-04T19:21:22;10.57;;;3.10;;
6420;SDS011;3243;50.958;7.012;2022-08-04T19:24:10;6.32;;;3.03;;
6420;SDS011;3243;50.958;7.012;2022-08-04T19:26:58;7.03;;;3.05;;
6420;SDS011;3243;50.958;7.012;2022-08-04T19:29:32;9.32;;;3.00;;
6420;SDS011;3243;50.958;7.012;2022-08-04T19:32:06;5.55;;;2.70;;
6420;SDS011;3243;50.958;7.012;2022-08-04T19:34:41;9.98;;;3.25;;
6420;SDS011;3243;50.958;7.012;2022-08-04T19:37:12;7.95;;;2.80;;
6420;SDS011;3243;50.958;7.012;2022-08-04T19:40:00;5.97;;;2.80;;
6420;SDS011;3243;50.958;7.012;2022-08-04T19:42:29;5.47;;;3.70;;
6420;SDS011;3243;50.958;7.012;2022-08-04T19:44:57;6.95;;;4.63;;
6420;SDS011;3243;50.958;7.012;2022-08-04T19:47:24;8.60;;;3.40;;
6420;SDS011;3243;50.958;7.012;2022-08-04T19:50:12;5.35;;;2.83;;
6420;SDS011;3243;50.958;7.012;2022-08-04T19:52:39;6.50;;;3.33;;
6420;SDS011;3243;50.958;7.012;2022-08-04T19:55:19;7.22;;;3.40;;
6420;SDS011;3243;50.958;7.012;2022-08-04T19:57:48;5.32;;;2.80;;
6420;SDS011;3243;50.958;7.012;2022-08-04T20:00:15;7.35;;;3.15;;
6420;SDS011;3243;50.958;7.012;2022-08-04T20:02:59;6.45;;;3.17;;
6420;SDS011;3243;50.958;7.012;2022-08-04T20:05:27;10.57;;;3.17;;
6420;SDS011;3243;50.958;7.012;2022-08-04T20:08:14;11.82;;;3.03;;
6420;SDS011;3243;50.958;7.012;2022-08-04T20:10:42;7.15;;;2.70;;
6420;SDS011;3243;50.958;7.012;2022-08-04T20:13:17;5.68;;;2.90;;
6420;SDS011;3243;50.958;7.012;2022-08-04T20:15:55;5.10;;;2.85;;
6420;SDS011;3243;50.958;7.012;2022-08-04T20:18:24;9.23;;;3.15;;
6420;SDS011;3243;50.958;7.012;2022-08-04T20:21:11;8.13;;;3.22;;
6420;SDS011;3243;50.958;7.012;2022-08-04T20:23:49;5.97;;;2.65;;
6420;SDS011;3243;50.958;7.012;2022-08-04T20:26:17;4.93;;;2.97;;
6420;SDS011;3243;50.958;7.012;2022-08-04T20:28:45;5.28;;;2.95;;
6420;SDS011;3243;50.958;7.012;2022-08-04T20:31:31;4.80;;;2.50;;
6420;SDS011;3243;50.958;7.012;2022-08-04T20:34:08;6.93;;;2.60;;
6420;SDS011;3243;50.958;7.012;2022-08-04T20:36:35;6.43;;;2.80;;
6420;SDS011;3243;50.958;7.012;2022-08-04T20:39:14;5.80;;;2.80;;
6420;SDS011;3243;50.958;7.012;2022-08-04T20:41:42;4.95;;;2.70;;
6420;SDS011;3243;50.958;7.012;2022-08-04T20:44:10;5.75;;;2.63;;
6420;SDS011;3243;50.958;7.012;2022-08-04T20:46:37;4.80;;;2.50;;
6420;SDS011;3243;50.958;7.012;2022-08-04T20:49:04;6.28;;;2.33;;
6420;SDS011;3243;50.958;7.012;2022-08-04T20:51:31;7.07;;;3.15;;
6420;SDS011;3243;50.958;7.012;2022-08-04T20:54:05;5.40;;;3.08;;
6420;SDS011;3243;50.958;7.012;2022-08-04T20:56:42;5.05;;;2.75;;
6420;SDS011;3243;50.958;7.012;2022-08-04T20:59:16;8.40;;;4.18;;